Time;durP1;ratioP1;P1;durP2;ratioP2;P2;SDS_P1;SDS_P2;PMS_P1;PMS_P2;Temp;Humidity;BMP_temperature;BMP_pressure;BME280_temperature;BME280_humidity;BME280_pressure;Samples;Min_cycle;Max_cycle;Signal;HPM_P1;HPM_P2
2023/01/27 00:01:17;;;;;;;14.83;2.53;;;7.70;99.90;;;;;;5066304;28;20628;-32
2023/01/27 00:03:44;;;;;;;10.43;2.47;;;7.70;99.90;;;;;;5065275;28;20216;-32
2023/01/27 00:06:12;;;;;;;7.93;2.40;;;7.70;99.90;;;;;;5063871;28;20257;-32
2023/01/27 00:08:41;;;;;;;11.27;2.47;;;7.70;99.90;;;;;;5061719;28;20683;-32
2023/01/27 00:13:54;;;;;;;14.67;2.40;;;7.70;99.90;;;;;;5065416;28;20255;-32
2023/01/27 00:16:21;;;;;;;9.73;1.97;;;7.60;99.90;;;;;;5066823;28;20761;-32
2023/01/27 00:18:49;;;;;;;13.07;2.67;;;7.60;99.90;;;;;;5063827;28;20220;-32
2023/01/27 00:26:56;;;;;;;13.50;2.27;;;7.50;99.90;;;;;;5065354;28;20674;-32
2023/01/27 00:29:23;;;;;;;11.67;2.43;;;7.50;99.90;;;;;;5065733;28;20269;-32
2023/01/27 00:34:40;;;;;;;9.23;1.63;;;7.50;99.90;;;;;;5065299;28;20196;-32
2023/01/27 00:37:09;;;;;;;10.17;2.10;;;7.50;99.90;;;;;;5064404;28;20208;-32
2023/01/27 00:39:39;;;;;;;15.77;2.60;;;7.50;99.90;;;;;;5053541;28;20219;-32
2023/01/27 00:42:08;;;;;;;15.47;2.27;;;7.50;99.90;;;;;;5047092;28;20295;-32
2023/01/27 00:44:35;;;;;;;13.63;2.90;;;7.50;99.90;;;;;;5064658;28;20219;-32
2023/01/27 00:47:03;;;;;;;8.83;2.37;;;7.50;99.90;;;;;;5064970;28;20298;-32
2023/01/27 00:49:35;;;;;;;11.17;2.20;;;7.50;99.90;;;;;;5064819;28;20199;-32
2023/01/27 00:52:02;;;;;;;13.63;2.40;;;7.50;99.90;;;;;;5065929;28;20239;-32
2023/01/27 00:54:31;;;;;;;8.70;2.03;;;7.50;99.90;;;;;;5063249;28;20196;-32
2023/01/27 01:01:39;;;;;;;15.93;2.47;;;7.60;99.90;;;;;;5055336;28;21000;-32
2023/01/27 01:04:08;;;;;;;6.50;2.20;;;7.60;99.90;;;;;;5062454;28;20336;-32
2023/01/27 01:06:38;;;;;;;9.53;2.10;;;7.50;99.90;;;;;;5062967;28;20214;-32
2023/01/27 01:09:08;;;;;;;8.20;2.37;;;7.50;99.90;;;;;;5059759;28;20207;-32
2023/01/27 01:11:39;;;;;;;12.20;2.83;;;7.60;99.90;;;;;;5063673;28;20285;-32
2023/01/27 01:14:07;;;;;;;6.73;2.00;;;7.60;99.90;;;;;;5064289;28;20264;-32
2023/01/27 01:16:34;;;;;;;17.83;3.03;;;7.60;99.90;;;;;;5062216;28;20698;-32
2023/01/27 01:19:06;;;;;;;10.17;2.50;;;7.60;99.90;;;;;;5070094;28;20661;-32
2023/01/27 01:21:37;;;;;;;10.43;2.20;;;7.60;99.90;;;;;;5057556;28;20269;-32
2023/01/27 01:24:09;;;;;;;10.73;2.50;;;7.60;99.90;;;;;;5057763;28;20203;-32
2023/01/27 01:26:43;;;;;;;13.73;2.70;;;7.60;99.90;;;;;;5062506;28;20196;-32
2023/01/27 01:29:10;;;;;;;15.47;2.33;;;7.50;99.90;;;;;;5065149;28;20207;-32
2023/01/27 01:31:37;;;;;;;10.10;2.07;;;7.50;99.90;;;;;;5063392;28;20298;-32
2023/01/27 01:34:04;;;;;;;11.33;2.80;;;7.50;99.90;;;;;;5064127;28;20620;-32
2023/01/27 01:36:32;;;;;;;8.93;2.10;;;7.50;99.90;;;;;;5060344;28;20199;-32
2023/01/27 01:39:03;;;;;;;11.57;2.77;;;7.40;99.90;;;;;;5045549;28;20300;-32
2023/01/27 01:41:33;;;;;;;15.47;2.77;;;7.40;99.90;;;;;;5061563;28;20302;-32
2023/01/27 01:44:27;;;;;;;15.17;2.87;;;7.40;99.90;;;;;;5064558;28;20687;-32
2023/01/27 01:46:55;;;;;;;12.60;3.00;;;7.40;99.90;;;;;;5061028;28;20662;-32
2023/01/27 01:49:39;;;;;;;10.43;2.30;;;7.30;99.90;;;;;;5063998;28;20203;-32
2023/01/27 01:52:13;;;;;;;11.10;2.40;;;7.30;99.90;;;;;;5059511;28;20239;-32
2023/01/27 01:54:53;;;;;;;14.37;2.57;;;7.30;99.90;;;;;;5059961;28;20631;-32
2023/01/27 01:57:39;;;;;;;14.63;2.63;;;7.30;99.90;;;;;;5062357;28;20286;-32
2023/01/27 02:00:10;;;;;;;15.87;2.20;;;7.20;99.90;;;;;;5063773;28;20297;-32
2023/01/27 02:02:39;;;;;;;10.87;2.10;;;7.20;99.90;;;;;;5056422;28;20699;-32
2023/01/27 02:05:14;;;;;;;9.73;2.13;;;7.20;99.90;;;;;;5060599;28;20674;-32
2023/01/27 02:08:08;;;;;;;12.83;2.10;;;7.20;99.90;;;;;;5059438;28;20253;-32
2023/01/27 02:10:38;;;;;;;12.20;2.30;;;7.10;99.90;;;;;;5059549;28;20302;-32
2023/01/27 02:13:08;;;;;;;7.77;1.90;;;7.10;99.90;;;;;;5062055;28;20208;-32
2023/01/27 02:15:38;;;;;;;13.77;2.87;;;7.10;99.90;;;;;;5054821;28;20238;-32
2023/01/27 02:18:10;;;;;;;9.67;2.33;;;7.10;99.90;;;;;;5054819;28;20237;-32
2023/01/27 02:20:48;;;;;;;10.57;2.40;;;7.10;99.90;;;;;;5059243;28;20204;-32
2023/01/27 02:23:24;;;;;;;7.27;2.30;;;7.00;99.90;;;;;;5058967;28;20764;-32
2023/01/27 02:26:12;;;;;;;7.07;2.03;;;7.10;99.90;;;;;;5062596;28;20215;-32
2023/01/27 02:28:39;;;;;;;8.07;2.20;;;7.10;99.90;;;;;;5058640;28;20203;-32
2023/01/27 02:31:11;;;;;;;10.80;1.90;;;7.00;99.90;;;;;;5062136;28;20207;-32
2023/01/27 02:33:39;;;;;;;9.77;2.63;;;6.90;99.90;;;;;;5061467;28;20215;-32
2023/01/27 02:36:17;;;;;;;9.20;1.93;;;6.90;99.90;;;;;;5062768;28;20207;-32
2023/01/27 02:38:51;;;;;;;11.97;2.27;;;7.00;99.90;;;;;;5063102;28;20223;-32
2023/01/27 02:41:31;;;;;;;11.10;2.17;;;7.00;99.90;;;;;;5063665;28;20207;-32
2023/01/27 02:44:00;;;;;;;9.80;2.17;;;7.00;99.90;;;;;;5065641;28;20211;-32
2023/01/27 02:46:28;;;;;;;11.57;2.90;;;7.00;99.90;;;;;;5067868;28;20674;-32
2023/01/27 02:48:58;;;;;;;9.90;2.83;;;7.00;99.90;;;;;;5066790;28;20203;-32
2023/01/27 02:51:25;;;;;;;10.37;2.03;;;7.00;99.90;;;;;;5066294;28;20219;-32
2023/01/27 02:53:54;;;;;;;8.70;2.30;;;7.00;99.90;;;;;;5062785;28;20231;-32
2023/01/27 02:56:22;;;;;;;11.67;2.53;;;7.00;99.90;;;;;;5066058;28;20207;-32
2023/01/27 02:58:55;;;;;;;14.93;2.93;;;7.00;99.90;;;;;;5046680;28;20237;-32
2023/01/27 03:01:24;;;;;;;11.13;2.63;;;7.10;99.90;;;;;;5046255;28;20695;-32
2023/01/27 03:03:53;;;;;;;9.83;2.17;;;7.10;99.90;;;;;;5065680;28;20665;-32
2023/01/27 03:06:23;;;;;;;16.73;3.27;;;7.10;99.90;;;;;;5065710;28;20199;-32
2023/01/27 03:08:52;;;;;;;11.77;2.77;;;7.10;99.90;;;;;;5067563;28;20211;-32
2023/01/27 03:14:08;;;;;;;12.00;3.13;;;7.10;99.90;;;;;;5068051;28;20304;-32
2023/01/27 03:19:25;;;;;;;7.30;2.63;;;7.00;99.90;;;;;;5047213;28;20252;-32
2023/01/27 03:21:53;;;;;;;10.90;4.00;;;7.00;99.90;;;;;;5054000;28;20295;-31
2023/01/27 03:24:20;;;;;;;8.77;2.53;;;6.90;99.90;;;;;;5062690;28;20225;-32
2023/01/27 03:26:48;;;;;;;9.07;3.00;;;6.90;99.90;;;;;;5067017;28;20741;-31
2023/01/27 03:32:06;;;;;;;10.40;2.70;;;6.90;99.90;;;;;;5066525;28;20674;-31
2023/01/27 03:34:35;;;;;;;9.50;3.20;;;6.80;99.90;;;;;;5061733;28;20211;-32
2023/01/27 03:48:13;;;;;;;11.77;2.93;;;6.70;99.90;;;;;;5051189;28;20290;-32
2023/01/27 03:50:43;;;;;;;10.37;3.30;;;6.70;99.90;;;;;;5046228;28;20236;-32
2023/01/27 03:53:13;;;;;;;8.33;3.00;;;6.70;99.90;;;;;;5055272;28;20292;-32
2023/01/27 03:55:42;;;;;;;8.93;3.00;;;6.60;99.90;;;;;;5063562;28;20208;-32
2023/01/27 03:58:36;;;;;;;12.77;3.50;;;6.60;99.90;;;;;;5064043;28;20265;-31
2023/01/27 04:01:12;;;;;;;11.87;3.50;;;6.70;99.90;;;;;;5066215;28;20293;-31
2023/01/27 04:09:24;;;;;;;9.33;3.17;;;6.50;99.90;;;;;;5059852;28;20239;-32
2023/01/27 04:11:57;;;;;;;8.97;3.13;;;6.50;99.90;;;;;;5064122;28;20626;-31
2023/01/27 04:14:33;;;;;;;7.97;3.70;;;6.50;99.90;;;;;;5066522;28;20203;-32
2023/01/27 04:17:09;;;;;;;11.67;2.83;;;6.50;99.90;;;;;;5063845;28;20215;-32
2023/01/27 04:19:37;;;;;;;8.07;3.33;;;6.50;99.90;;;;;;5061583;28;20231;-32
2023/01/27 04:22:05;;;;;;;8.90;3.50;;;6.50;99.90;;;;;;5045735;28;20196;-31
2023/01/27 04:24:35;;;;;;;9.67;3.37;;;6.40;99.90;;;;;;5061724;28;20196;-31
2023/01/27 04:27:06;;;;;;;8.57;3.30;;;6.40;99.90;;;;;;5063164;28;20701;-31
2023/01/27 04:29:36;;;;;;;6.10;3.37;;;6.40;99.90;;;;;;5065438;28;20680;-32
2023/01/27 04:32:08;;;;;;;10.37;3.83;;;6.40;99.90;;;;;;5066210;28;20203;-32
2023/01/27 04:34:42;;;;;;;10.00;3.60;;;6.40;99.90;;;;;;5064079;28;20308;-31
2023/01/27 04:37:10;;;;;;;10.20;3.50;;;6.40;99.90;;;;;;5063152;28;20549;-32
2023/01/27 04:39:44;;;;;;;9.20;3.90;;;6.40;99.90;;;;;;5060839;28;20321;-32
2023/01/27 04:42:13;;;;;;;8.30;3.40;;;6.40;99.90;;;;;;5059960;28;20188;-32
2023/01/27 04:44:43;;;;;;;9.63;4.10;;;6.50;99.90;;;;;;5061820;28;20674;-32
2023/01/27 04:47:13;;;;;;;6.17;4.00;;;6.40;99.90;;;;;;5064046;28;20203;-32
2023/01/27 04:49:40;;;;;;;8.83;3.67;;;6.40;99.90;;;;;;5063787;28;20612;-31
2023/01/27 04:52:07;;;;;;;10.40;3.93;;;6.40;99.90;;;;;;5065946;28;20235;-32
2023/01/27 04:54:37;;;;;;;10.83;4.70;;;6.40;99.90;;;;;;5065900;28;20208;-31
2023/01/27 04:57:04;;;;;;;12.07;4.70;;;6.40;99.90;;;;;;5062500;28;20741;-31
2023/01/27 04:59:36;;;;;;;11.50;4.70;;;6.30;99.90;;;;;;5059833;28;20224;-31
2023/01/27 05:02:03;;;;;;;17.43;4.90;;;6.30;99.90;;;;;;5063785;28;20709;-31
2023/01/27 05:04:33;;;;;;;9.10;4.93;;;6.30;99.90;;;;;;5064982;28;20207;-32
2023/01/27 05:07:08;;;;;;;15.10;6.57;;;6.20;99.90;;;;;;5064930;28;20223;-31
2023/01/27 05:09:39;;;;;;;10.90;5.17;;;6.20;99.90;;;;;;5060939;28;20233;-32
2023/01/27 05:12:07;;;;;;;11.23;5.23;;;6.10;99.90;;;;;;5063362;28;20295;-31
2023/01/27 05:14:39;;;;;;;10.07;5.03;;;6.10;99.90;;;;;;5044012;28;20621;-32
2023/01/27 05:17:08;;;;;;;11.43;6.13;;;6.10;99.90;;;;;;5052422;28;20269;-31
2023/01/27 05:19:38;;;;;;;13.43;6.60;;;6.10;99.90;;;;;;5058111;28;20671;-32
2023/01/27 05:22:08;;;;;;;11.57;6.47;;;6.10;99.90;;;;;;5063311;28;20223;-31
2023/01/27 05:24:39;;;;;;;11.17;5.97;;;6.20;99.90;;;;;;5061963;28;20214;-31
2023/01/27 05:27:09;;;;;;;12.33;5.90;;;6.20;99.90;;;;;;5065635;28;20203;-31
2023/01/27 05:29:36;;;;;;;15.23;5.90;;;6.20;99.90;;;;;;5061352;28;20258;-31
2023/01/27 05:32:03;;;;;;;11.17;5.97;;;6.20;99.90;;;;;;5064096;28;20565;-31
2023/01/27 05:34:33;;;;;;;13.47;6.07;;;6.20;99.90;;;;;;5061361;28;20582;-31
2023/01/27 05:37:05;;;;;;;11.63;5.80;;;6.20;99.90;;;;;;5072908;28;20211;-31
2023/01/27 05:39:35;;;;;;;15.93;7.50;;;6.30;99.90;;;;;;5058697;28;20221;-31
2023/01/27 05:42:04;;;;;;;13.70;6.73;;;6.20;99.90;;;;;;5063233;28;20199;-31
2023/01/27 05:44:34;;;;;;;14.37;7.40;;;6.30;99.90;;;;;;5065033;28;20248;-31
2023/01/27 05:47:01;;;;;;;11.10;6.73;;;6.30;99.90;;;;;;5062155;28;20208;-31
2023/01/27 05:49:28;;;;;;;11.87;6.80;;;6.30;99.90;;;;;;5060818;28;20211;-31
2023/01/27 05:52:00;;;;;;;12.67;6.17;;;6.40;99.90;;;;;;5069611;28;20729;-31
2023/01/27 05:54:27;;;;;;;16.50;7.43;;;6.40;99.90;;;;;;5063844;28;20816;-31
2023/01/27 05:56:54;;;;;;;14.30;7.20;;;6.40;99.90;;;;;;5062745;28;20191;-31
2023/01/27 05:59:26;;;;;;;15.30;7.63;;;6.30;99.90;;;;;;5062677;28;20312;-31
2023/01/27 06:01:53;;;;;;;12.47;7.70;;;6.30;99.90;;;;;;5050484;28;20200;-31
2023/01/27 06:04:21;;;;;;;13.73;7.20;;;6.30;99.90;;;;;;5046274;28;20204;-31
2023/01/27 06:06:48;;;;;;;11.93;6.67;;;6.30;99.90;;;;;;5049586;28;20219;-31
2023/01/27 06:09:22;;;;;;;10.77;6.50;;;6.20;99.90;;;;;;5060806;28;20200;-31
2023/01/27 06:11:52;;;;;;;10.77;6.60;;;6.30;99.90;;;;;;5060138;28;20299;-31
2023/01/27 06:14:21;;;;;;;13.07;6.27;;;6.30;99.90;;;;;;5055534;28;20224;-32
2023/01/27 06:16:52;;;;;;;13.37;6.57;;;6.30;99.90;;;;;;5057939;28;20207;-31
2023/01/27 06:19:22;;;;;;;15.00;6.37;;;6.30;99.90;;;;;;5062856;28;20223;-31
2023/01/27 06:21:51;;;;;;;12.27;6.40;;;6.20;99.90;;;;;;5078319;28;20220;-31
2023/01/27 06:24:18;;;;;;;10.13;6.63;;;6.30;99.90;;;;;;5057104;28;20223;-31
2023/01/27 06:26:48;;;;;;;12.57;6.27;;;6.30;99.90;;;;;;5064189;28;20743;-31
2023/01/27 06:29:17;;;;;;;15.80;8.23;;;6.30;99.90;;;;;;5065280;28;20667;-31
2023/01/27 06:31:47;;;;;;;14.43;8.70;;;6.20;99.90;;;;;;5083358;28;20677;-31
2023/01/27 06:34:19;;;;;;;15.87;8.93;;;6.20;99.90;;;;;;5058166;28;20239;-31
2023/01/27 06:36:47;;;;;;;13.33;8.77;;;6.30;99.90;;;;;;5062108;28;20324;-31
2023/01/27 06:39:16;;;;;;;13.03;8.27;;;6.20;99.90;;;;;;5064579;28;20632;-31
2023/01/27 06:41:50;;;;;;;12.27;8.50;;;6.20;99.90;;;;;;5065812;28;20205;-31
2023/01/27 06:44:17;;;;;;;11.10;8.27;;;6.30;99.90;;;;;;5062874;28;20234;-31
2023/01/27 06:46:44;;;;;;;14.33;8.70;;;6.30;99.90;;;;;;5063158;28;20207;-31
2023/01/27 06:49:12;;;;;;;10.73;7.97;;;6.20;99.90;;;;;;5061070;28;20547;-31
2023/01/27 06:51:43;;;;;;;13.07;7.77;;;6.10;99.90;;;;;;5063594;28;20250;-31
2023/01/27 06:54:11;;;;;;;14.67;6.97;;;6.00;99.90;;;;;;5056773;28;20217;-31
2023/01/27 06:56:38;;;;;;;11.63;7.07;;;6.00;99.90;;;;;;5054675;28;20286;-31
2023/01/27 06:59:05;;;;;;;10.33;6.80;;;6.00;99.90;;;;;;5053223;28;20691;-31
2023/01/27 07:01:32;;;;;;;11.33;7.60;;;6.00;99.90;;;;;;5058675;28;20302;-31
2023/01/27 07:04:02;;;;;;;10.90;6.70;;;6.00;99.90;;;;;;5053262;28;20204;-31
2023/01/27 07:06:32;;;;;;;11.27;6.97;;;6.00;99.90;;;;;;5046096;28;20208;-31
2023/01/27 07:09:01;;;;;;;10.33;6.97;;;6.00;99.90;;;;;;5045521;28;20193;-31
2023/01/27 07:11:31;;;;;;;10.77;7.17;;;6.00;99.90;;;;;;5063032;28;20239;-31
2023/01/27 07:14:03;;;;;;;9.70;6.40;;;5.90;99.90;;;;;;5063837;28;20204;-31
2023/01/27 07:16:30;;;;;;;10.23;7.60;;;5.90;99.90;;;;;;5066156;28;20208;-31
2023/01/27 07:19:00;;;;;;;9.83;7.07;;;5.90;99.90;;;;;;5046099;28;20212;-31
2023/01/27 07:21:28;;;;;;;11.13;7.10;;;5.90;99.90;;;;;;5070120;28;20583;-31
2023/01/27 07:23:57;;;;;;;12.10;7.63;;;5.90;99.90;;;;;;5063811;28;20269;-31
2023/01/27 07:26:27;;;;;;;12.73;8.30;;;5.90;99.90;;;;;;5064000;28;20195;-31
2023/01/27 07:28:57;;;;;;;14.23;8.97;;;5.90;99.90;;;;;;5071126;28;20215;-31
2023/01/27 07:31:24;;;;;;;14.17;8.73;;;5.90;99.90;;;;;;5065569;28;20210;-31
2023/01/27 07:33:54;;;;;;;13.33;9.07;;;5.90;99.90;;;;;;5062549;28;20188;-31
2023/01/27 07:36:27;;;;;;;14.40;8.60;;;5.90;99.90;;;;;;5063597;28;20203;-31
2023/01/27 07:38:57;;;;;;;12.90;8.23;;;5.90;99.90;;;;;;5068604;28;20264;-31
2023/01/27 07:41:25;;;;;;;12.83;8.47;;;5.90;99.90;;;;;;5062619;28;20272;-31
2023/01/27 07:43:52;;;;;;;11.40;8.47;;;6.00;99.90;;;;;;5053368;28;20231;-31
2023/01/27 07:46:19;;;;;;;12.77;8.50;;;6.00;99.90;;;;;;5060541;28;20196;-31
2023/01/27 07:48:51;;;;;;;13.67;8.93;;;6.10;99.90;;;;;;5062834;28;20669;-31
2023/01/27 07:51:21;;;;;;;15.93;9.23;;;6.10;99.90;;;;;;5059453;28;20696;-31
2023/01/27 07:53:49;;;;;;;12.97;8.80;;;6.10;99.90;;;;;;5043420;28;20730;-31
2023/01/27 07:56:16;;;;;;;12.47;8.83;;;6.10;99.90;;;;;;5059048;28;20204;-31
2023/01/27 07:58:44;;;;;;;12.90;8.90;;;6.10;99.90;;;;;;5061448;28;20200;-31
2023/01/27 08:01:12;;;;;;;13.30;8.47;;;6.10;99.90;;;;;;5074279;28;20232;-31
2023/01/27 08:03:39;;;;;;;13.93;9.00;;;6.10;99.90;;;;;;5063803;28;20206;-31
2023/01/27 08:06:08;;;;;;;13.80;8.87;;;6.20;99.90;;;;;;5064146;28;20263;-31
2023/01/27 08:08:35;;;;;;;10.73;8.07;;;6.20;99.90;;;;;;5061539;28;20200;-31
2023/01/27 08:11:07;;;;;;;14.37;9.33;;;6.20;99.90;;;;;;5064303;28;20307;-31
2023/01/27 08:13:35;;;;;;;12.07;8.63;;;6.30;99.90;;;;;;5063794;28;20617;-31
2023/01/27 08:16:07;;;;;;;14.37;9.00;;;6.30;99.90;;;;;;5075764;28;20618;-32
2023/01/27 08:18:34;;;;;;;14.43;9.10;;;6.30;99.90;;;;;;5066188;28;20231;-31
2023/01/27 08:21:04;;;;;;;14.03;8.57;;;6.30;99.90;;;;;;5063297;28;20227;-31
2023/01/27 08:23:34;;;;;;;12.27;9.53;;;6.30;99.90;;;;;;5070831;28;20227;-32
2023/01/27 08:26:04;;;;;;;14.47;9.00;;;6.30;99.90;;;;;;5064562;28;20591;-32
2023/01/27 08:28:35;;;;;;;11.93;9.00;;;6.30;99.90;;;;;;5064432;28;20188;-31
2023/01/27 08:31:16;;;;;;;12.37;8.50;;;6.40;99.90;;;;;;5047713;28;20208;-32
2023/01/27 08:33:49;;;;;;;14.37;9.50;;;6.30;99.90;;;;;;5061582;28;20207;-31
2023/01/27 08:36:20;;;;;;;14.67;9.27;;;6.30;99.90;;;;;;5060730;28;20219;-32
2023/01/27 08:38:48;;;;;;;16.50;10.03;;;6.30;99.90;;;;;;5064081;28;20269;-31
2023/01/27 08:41:23;;;;;;;13.63;7.87;;;6.30;99.90;;;;;;5062081;28;20732;-32
2023/01/27 08:43:52;;;;;;;14.97;9.10;;;6.30;99.90;;;;;;5063724;28;20210;-32
2023/01/27 08:46:21;;;;;;;14.33;9.23;;;6.30;99.90;;;;;;5055905;28;20676;-31
2023/01/27 08:48:51;;;;;;;15.10;10.10;;;6.20;99.90;;;;;;5052983;28;20191;-32
2023/01/27 08:51:23;;;;;;;17.57;10.00;;;6.20;99.90;;;;;;5064558;28;20345;-31
2023/01/27 08:53:50;;;;;;;15.17;8.90;;;6.20;99.90;;;;;;5046380;28;20259;-31
2023/01/27 08:56:20;;;;;;;13.47;8.87;;;6.20;99.90;;;;;;5067446;28;20206;-31
2023/01/27 08:58:47;;;;;;;13.23;9.17;;;6.30;99.90;;;;;;5039642;28;20295;-32
2023/01/27 09:01:18;;;;;;;13.03;9.17;;;6.30;99.90;;;;;;5063983;28;20280;-31
2023/01/27 09:03:51;;;;;;;12.97;8.90;;;6.30;99.90;;;;;;5075204;28;20257;-32
2023/01/27 09:06:20;;;;;;;13.17;9.13;;;6.30;99.90;;;;;;5058462;28;20231;-31
2023/01/27 09:09:07;;;;;;;15.97;9.80;;;6.30;99.90;;;;;;5060802;28;20214;-31
2023/01/27 09:11:42;;;;;;;13.13;9.83;;;6.30;99.90;;;;;;5062683;28;21138;-31
2023/01/27 09:14:12;;;;;;;13.50;8.97;;;6.30;99.90;;;;;;5062501;28;20245;-32
2023/01/27 09:16:40;;;;;;;12.87;9.50;;;6.30;99.90;;;;;;5062479;28;20661;-32
2023/01/27 09:19:14;;;;;;;13.50;9.23;;;6.30;99.90;;;;;;5061013;28;20743;-32
2023/01/27 09:21:42;;;;;;;12.40;8.77;;;6.30;99.90;;;;;;5061123;28;20199;-31
2023/01/27 09:24:10;;;;;;;11.97;8.27;;;6.30;99.90;;;;;;5061219;28;20203;-31
2023/01/27 09:26:39;;;;;;;10.00;7.13;;;6.20;99.90;;;;;;5057682;28;20256;-31
2023/01/27 09:29:06;;;;;;;9.03;7.00;;;6.20;99.90;;;;;;5063063;28;20215;-32
2023/01/27 09:31:33;;;;;;;10.33;7.47;;;6.20;99.90;;;;;;5063360;28;20570;-32
2023/01/27 09:34:06;;;;;;;9.83;7.37;;;6.20;99.90;;;;;;5063015;28;20237;-31
2023/01/27 09:36:40;;;;;;;11.23;8.00;;;6.30;99.90;;;;;;5061185;28;20630;-31
2023/01/27 09:39:13;;;;;;;11.83;7.60;;;6.30;99.90;;;;;;5073470;28;20771;-32
2023/01/27 09:41:49;;;;;;;9.93;7.93;;;6.30;99.90;;;;;;5062389;28;20272;-31
2023/01/27 09:44:55;;;;;;;10.70;7.70;;;6.40;99.90;;;;;;5062151;28;20269;-31
2023/01/27 09:47:29;;;;;;;23.43;9.53;;;6.40;99.90;;;;;;5059947;28;20765;-31
2023/01/27 09:50:34;;;;;;;10.57;7.97;;;6.40;99.90;;;;;;5076813;28;20215;-31
2023/01/27 09:53:24;;;;;;;12.07;8.03;;;6.50;99.90;;;;;;5061283;28;20305;-32
2023/01/27 09:55:59;;;;;;;11.03;7.70;;;6.50;99.90;;;;;;5063783;28;20943;-32
2023/01/27 09:58:45;;;;;;;12.03;8.10;;;6.50;99.90;;;;;;5060130;28;21379;-31
2023/01/27 10:01:37;;;;;;;7.83;6.80;;;6.50;99.90;;;;;;5064878;28;20223;-32
2023/01/27 10:04:16;;;;;;;10.00;6.70;;;6.50;99.90;;;;;;5065684;28;20662;-31
2023/01/27 10:07:02;;;;;;;8.90;6.93;;;6.40;99.90;;;;;;5066043;28;20206;-31
2023/01/27 10:09:51;;;;;;;9.90;6.67;;;6.50;99.90;;;;;;5062913;28;20211;-32
2023/01/27 10:12:58;;;;;;;8.20;6.50;;;6.40;99.90;;;;;;5064435;28;20215;-32
2023/01/27 10:16:02;;;;;;;9.13;6.37;;;6.50;99.90;;;;;;5065348;28;20195;-32
2023/01/27 10:18:46;;;;;;;10.63;7.23;;;6.50;99.90;;;;;;5075005;28;20226;-31
2023/01/27 10:21:25;;;;;;;8.73;6.67;;;6.50;99.90;;;;;;5064837;28;20223;-32
2023/01/27 10:24:14;;;;;;;9.10;7.40;;;6.60;99.90;;;;;;5064442;28;20289;-32
2023/01/27 10:26:52;;;;;;;9.10;7.37;;;6.60;99.90;;;;;;5058832;28;20212;-32
2023/01/27 10:29:22;;;;;;;9.00;7.00;;;6.50;99.90;;;;;;5061135;28;20736;-31
2023/01/27 10:31:59;;;;;;;8.27;6.90;;;6.50;99.90;;;;;;5066516;28;20226;-31
2023/01/27 10:34:34;;;;;;;9.57;6.83;;;6.60;99.90;;;;;;5066074;28;20203;-31
2023/01/27 10:37:16;;;;;;;8.37;7.40;;;6.60;99.90;;;;;;5061550;28;20230;-32
2023/01/27 10:40:20;;;;;;;8.03;6.90;;;6.70;99.90;;;;;;5080013;28;20211;-31
2023/01/27 10:43:09;;;;;;;9.70;7.60;;;6.70;99.90;;;;;;5053073;28;20208;-32
2023/01/27 10:45:59;;;;;;;8.50;6.87;;;6.80;99.90;;;;;;5059011;28;20655;-32
2023/01/27 10:48:34;;;;;;;8.93;6.37;;;6.80;99.90;;;;;;5061652;28;20205;-31
2023/01/27 10:51:14;;;;;;;8.90;6.77;;;6.80;99.90;;;;;;5063510;28;20215;-31
2023/01/27 10:54:04;;;;;;;9.67;6.43;;;6.90;99.90;;;;;;5059308;28;20808;-31
2023/01/27 10:56:44;;;;;;;6.50;5.80;;;6.90;99.90;;;;;;5064204;28;20513;-31
2023/01/27 10:59:25;;;;;;;7.40;5.90;;;6.90;99.90;;;;;;5062457;28;20206;-32
2023/01/27 11:02:18;;;;;;;6.77;5.67;;;7.00;99.90;;;;;;5065876;28;20280;-32
2023/01/27 11:04:50;;;;;;;6.90;6.13;;;7.00;99.90;;;;;;5063850;28;20199;-32
2023/01/27 11:07:20;;;;;;;7.40;5.73;;;7.00;99.90;;;;;;5065175;28;20212;-32
2023/01/27 11:10:01;;;;;;;6.73;5.77;;;6.90;99.90;;;;;;5063505;28;20299;-31
2023/01/27 11:12:41;;;;;;;7.70;6.00;;;6.90;99.90;;;;;;5061562;28;20227;-31
2023/01/27 11:15:24;;;;;;;6.80;5.93;;;6.90;99.90;;;;;;5064474;28;20651;-32
2023/01/27 11:18:24;;;;;;;9.00;6.40;;;6.90;99.90;;;;;;5064507;28;20230;-31
2023/01/27 11:21:19;;;;;;;9.37;6.47;;;7.00;99.90;;;;;;5061303;28;20317;-31
2023/01/27 11:23:54;;;;;;;7.40;5.63;;;7.00;99.90;;;;;;5061276;28;20208;-31
2023/01/27 11:26:45;;;;;;;7.73;6.00;;;7.00;99.90;;;;;;5063217;28;20207;-31
2023/01/27 11:29:27;;;;;;;8.43;5.93;;;7.10;99.90;;;;;;5056789;28;20211;-31
2023/01/27 11:32:21;;;;;;;9.20;6.00;;;7.00;99.90;;;;;;5063309;28;20552;-31
2023/01/27 11:35:10;;;;;;;9.53;6.10;;;7.10;99.90;;;;;;5063751;28;20257;-31
2023/01/27 11:37:39;;;;;;;8.00;5.77;;;7.10;99.90;;;;;;5063997;28;20231;-32
2023/01/27 11:40:19;;;;;;;8.60;6.50;;;7.10;99.90;;;;;;5064749;28;20227;-32
2023/01/27 11:42:46;;;;;;;6.40;5.53;;;7.10;99.90;;;;;;5062780;28;20199;-32
2023/01/27 11:45:20;;;;;;;10.93;6.17;;;7.00;99.90;;;;;;5030902;28;20211;-32
2023/01/27 11:48:01;;;;;;;7.43;6.10;;;7.10;99.90;;;;;;5060317;28;20200;-32
2023/01/27 11:50:34;;;;;;;8.43;5.87;;;7.10;99.90;;;;;;5064796;28;20204;-32
2023/01/27 11:53:26;;;;;;;10.23;6.10;;;7.10;99.90;;;;;;5058870;28;20247;-31
2023/01/27 11:56:03;;;;;;;8.03;5.93;;;7.20;99.90;;;;;;5062602;28;20211;-32
2023/01/27 11:58:38;;;;;;;6.30;5.30;;;7.10;99.90;;;;;;5079548;28;20673;-32
2023/01/27 12:01:16;;;;;;;7.60;5.53;;;7.00;99.90;;;;;;5065153;28;20246;-32
2023/01/27 12:04:03;;;;;;;6.00;5.40;;;7.00;99.90;;;;;;5061948;28;20281;-32
2023/01/27 12:06:45;;;;;;;7.20;5.03;;;7.00;99.90;;;;;;5061191;28;20376;-32
2023/01/27 12:09:34;;;;;;;8.83;5.80;;;7.10;99.90;;;;;;5056687;28;20298;-31
2023/01/27 12:12:35;;;;;;;6.67;5.53;;;7.10;99.90;;;;;;5056268;28;20514;-32
2023/01/27 12:15:14;;;;;;;8.23;5.63;;;7.10;99.90;;;;;;5062628;28;20214;-31
2023/01/27 12:17:58;;;;;;;8.63;5.70;;;7.10;99.90;;;;;;5052084;28;20211;-31
2023/01/27 12:20:31;;;;;;;8.10;6.30;;;7.20;99.90;;;;;;5061777;28;20249;-32
2023/01/27 12:23:26;;;;;;;8.93;5.60;;;7.20;99.90;;;;;;5062005;28;20290;-32
2023/01/27 12:26:07;;;;;;;9.07;5.90;;;7.20;99.90;;;;;;5070265;28;20199;-31
2023/01/27 12:28:40;;;;;;;6.53;5.80;;;7.20;99.90;;;;;;5061753;28;20227;-31
2023/01/27 12:31:18;;;;;;;6.93;5.90;;;7.20;99.90;;;;;;5064841;28;20203;-31
2023/01/27 12:34:11;;;;;;;8.23;6.33;;;7.20;99.90;;;;;;5062999;28;20207;-32
2023/01/27 12:36:43;;;;;;;10.33;6.23;;;7.20;99.90;;;;;;5059060;28;20211;-31
2023/01/27 12:39:29;;;;;;;7.70;5.57;;;7.00;99.90;;;;;;5061236;28;20303;-32
2023/01/27 12:41:57;;;;;;;6.13;5.53;;;7.10;99.90;;;;;;5062505;28;20256;-32
2023/01/27 12:44:51;;;;;;;8.77;6.23;;;7.10;99.90;;;;;;5059673;28;20204;-32
2023/01/27 12:47:23;;;;;;;8.40;5.60;;;7.10;99.90;;;;;;5064006;28;20569;-32
2023/01/27 12:49:53;;;;;;;6.63;5.90;;;7.10;99.90;;;;;;5061313;28;20203;-32
2023/01/27 12:52:22;;;;;;;6.70;6.00;;;7.10;99.90;;;;;;5062586;28;20227;-32
2023/01/27 12:54:52;;;;;;;6.87;5.13;;;7.20;99.90;;;;;;5061323;28;20203;-31
2023/01/27 12:57:21;;;;;;;7.27;5.53;;;7.20;99.90;;;;;;5046405;28;20236;-32
2023/01/27 12:59:57;;;;;;;7.67;5.63;;;7.00;99.90;;;;;;5062723;28;20288;-32
2023/01/27 13:02:31;;;;;;;25.93;7.07;;;7.10;99.90;;;;;;5056986;28;20251;-32
2023/01/27 13:05:06;;;;;;;10.83;6.03;;;7.00;99.90;;;;;;5059449;28;20199;-31
2023/01/27 13:07:46;;;;;;;7.20;5.70;;;7.10;99.90;;;;;;5062848;28;20200;-32
2023/01/27 13:10:23;;;;;;;13.00;6.27;;;7.00;99.90;;;;;;5063484;28;20681;-32
2023/01/27 13:12:56;;;;;;;8.33;5.50;;;7.00;99.90;;;;;;5059273;28;20227;-30
2023/01/27 13:15:29;;;;;;;10.13;5.77;;;7.00;99.90;;;;;;5061407;28;20682;-31
2023/01/27 13:18:11;;;;;;;11.07;6.40;;;7.00;99.90;;;;;;5061832;28;20196;-31
2023/01/27 13:20:54;;;;;;;9.33;5.57;;;7.00;99.90;;;;;;5062902;28;20776;-31
2023/01/27 13:23:29;;;;;;;8.67;6.00;;;7.00;99.90;;;;;;5054351;28;20316;-30
2023/01/27 13:26:10;;;;;;;8.17;5.67;;;7.10;99.90;;;;;;5062375;28;20677;-31
2023/01/27 13:29:06;;;;;;;8.27;5.67;;;7.10;99.90;;;;;;5066008;28;20551;-31
2023/01/27 13:31:48;;;;;;;6.40;5.40;;;7.10;99.90;;;;;;5060968;28;20295;-31
2023/01/27 13:34:42;;;;;;;9.77;5.63;;;7.00;99.90;;;;;;5060040;28;20196;-31
2023/01/27 13:37:27;;;;;;;5.77;5.13;;;7.00;99.90;;;;;;5063231;28;20215;-31
2023/01/27 13:40:12;;;;;;;7.37;5.07;;;7.00;99.90;;;;;;5061982;28;20206;-31
2023/01/27 13:42:57;;;;;;;8.03;5.70;;;7.00;99.90;;;;;;5061155;28;20203;-32
2023/01/27 13:45:39;;;;;;;7.77;5.17;;;7.00;99.90;;;;;;5076531;28;20627;-31
2023/01/27 13:48:15;;;;;;;6.63;5.00;;;7.00;99.90;;;;;;5057815;28;20328;-31
2023/01/27 13:50:51;;;;;;;4.83;4.43;;;6.90;99.90;;;;;;5061453;28;20750;-33
2023/01/27 13:53:23;;;;;;;5.53;4.40;;;6.90;99.90;;;;;;5061865;28;20227;-31
2023/01/27 13:56:11;;;;;;;5.30;4.77;;;6.90;99.90;;;;;;5062682;28;20544;-31
2023/01/27 13:58:57;;;;;;;7.00;5.00;;;7.00;99.90;;;;;;5061738;28;20215;-31
2023/01/27 14:01:58;;;;;;;8.03;4.70;;;7.00;99.90;;;;;;5055442;28;20219;-31
2023/01/27 14:04:49;;;;;;;7.97;5.27;;;6.90;99.90;;;;;;5054919;28;20230;-31
2023/01/27 14:07:50;;;;;;;7.67;4.87;;;6.90;99.90;;;;;;5061049;28;20253;-31